createdAt,value
2023-01-10T00:01:57.639Z,10.40
2023-01-10T00:04:29.988Z,20.45
2023-01-10T00:06:57.804Z,17.45
2023-01-10T00:09:25.601Z,15.98
2023-01-10T00:12:11.579Z,8.13
2023-01-10T00:14:39.323Z,14.50
2023-01-10T00:17:07.260Z,10.98
2023-01-10T00:19:34.980Z,15.63
2023-01-10T00:22:09.403Z,9.63
2023-01-10T00:24:37.058Z,13.02
2023-01-10T00:27:04.883Z,18.55
2023-01-10T00:29:34.104Z,16.90
2023-01-10T00:32:01.812Z,10.18
2023-01-10T00:34:30.133Z,17.25
2023-01-10T00:36:57.870Z,11.48
2023-01-10T00:39:30.001Z,16.52
2023-01-10T00:42:16.346Z,10.43
2023-01-10T00:44:46.842Z,10.77
2023-01-10T00:47:14.845Z,12.88
2023-01-10T00:49:42.558Z,9.82
2023-01-10T00:52:10.276Z,12.85
2023-01-10T00:54:38.044Z,9.77
2023-01-10T00:57:05.748Z,11.88
2023-01-10T00:59:33.417Z,20.92
2023-01-10T01:02:01.298Z,13.32
2023-01-10T01:04:34.053Z,11.93
2023-01-10T01:07:02.844Z,13.63
2023-01-10T01:09:31.326Z,12.35
2023-01-10T01:11:59.089Z,22.15
2023-01-10T01:14:26.751Z,18.73
2023-01-10T01:16:55.438Z,13.25
2023-01-10T01:19:23.082Z,15.73
2023-01-10T01:21:50.790Z,18.17
2023-01-10T01:24:18.433Z,12.85
2023-01-10T01:26:46.175Z,11.98
2023-01-10T01:29:13.869Z,12.02
2023-01-10T01:31:41.567Z,24.95
2023-01-10T01:34:09.398Z,17.73
2023-01-10T01:36:37.051Z,20.33
2023-01-10T01:39:06.232Z,19.40
2023-01-10T01:41:52.391Z,21.88
2023-01-10T01:44:20.698Z,13.80
2023-01-10T01:47:16.038Z,22.25
2023-01-10T01:49:45.572Z,15.90
2023-01-10T01:52:23.219Z,18.50
2023-01-10T01:54:54.815Z,18.30
2023-01-10T01:57:26.561Z,17.50
2023-01-10T01:59:56.146Z,18.77
2023-01-10T02:02:30.838Z,18.88
2023-01-10T02:05:04.146Z,26.88
2023-01-10T02:07:39.091Z,25.95
2023-01-10T02:10:19.824Z,19.90
2023-01-10T02:12:52.070Z,19.00
2023-01-10T02:15:20.070Z,20.80
2023-01-10T02:17:50.503Z,16.00
2023-01-10T02:20:20.948Z,13.90
2023-01-10T02:22:54.336Z,21.48
2023-01-10T02:26:05.280Z,24.30
2023-01-10T02:29:21.048Z,28.77
2023-01-10T02:32:15.954Z,19.30
2023-01-10T02:35:01.685Z,21.40
2023-01-10T02:37:54.519Z,17.33
2023-01-10T02:40:50.141Z,23.95
2023-01-10T02:43:30.234Z,15.37
2023-01-10T02:46:17.274Z,21.67
2023-01-10T02:48:45.124Z,15.27
2023-01-10T02:51:27.427Z,21.75
2023-01-10T02:54:23.609Z,20.38
2023-01-10T02:57:31.528Z,23.58
2023-01-10T03:00:09.021Z,20.55
2023-01-10T03:03:19.822Z,19.67
2023-01-10T03:06:07.877Z,16.98
2023-01-10T03:08:57.448Z,25.63
2023-01-10T03:11:41.530Z,21.83
2023-01-10T03:14:21.234Z,20.67
2023-01-10T03:17:10.872Z,21.45
2023-01-10T03:19:51.729Z,19.25
2023-01-10T03:22:19.541Z,20.05
2023-01-10T03:24:52.441Z,15.30
2023-01-10T03:27:43.659Z,19.15
2023-01-10T03:30:59.313Z,25.15
2023-01-10T03:33:30.274Z,28.63
2023-01-10T03:36:17.419Z,17.98
2023-01-10T03:39:04.267Z,27.80
2023-01-10T03:41:49.663Z,20.25
2023-01-10T03:44:46.601Z,22.70
2023-01-10T03:47:45.524Z,37.45
2023-01-10T03:50:20.508Z,32.08
2023-01-10T03:52:48.277Z,30.23
2023-01-10T03:55:23.322Z,20.80
2023-01-10T03:57:51.582Z,15.02
2023-01-10T04:00:20.034Z,22.35
2023-01-10T04:02:47.912Z,18.33
2023-01-10T04:05:15.613Z,25.67
2023-01-10T04:07:43.295Z,21.20
2023-01-10T04:10:11.531Z,25.25
2023-01-10T04:12:39.264Z,23.95
2023-01-10T04:15:07.570Z,18.20
2023-01-10T04:17:35.332Z,29.42
2023-01-10T04:20:03.232Z,29.52
2023-01-10T04:22:30.938Z,24.60
2023-01-10T04:24:58.648Z,20.38
2023-01-10T04:27:26.344Z,28.67
2023-01-10T04:29:54.062Z,28.52
2023-01-10T04:32:21.693Z,16.23
2023-01-10T04:34:49.333Z,17.35
2023-01-10T04:37:17.064Z,29.90
2023-01-10T04:39:44.730Z,19.95
2023-01-10T04:42:12.390Z,23.80
2023-01-10T04:44:40.050Z,22.35
2023-01-10T04:47:07.792Z,20.25
2023-01-10T04:49:35.535Z,23.80
2023-01-10T04:52:03.256Z,25.42
2023-01-10T04:54:31.034Z,19.40
2023-01-10T04:56:58.703Z,15.75
2023-01-10T04:59:26.405Z,21.58
2023-01-10T05:01:54.238Z,27.70
2023-01-10T05:04:22.144Z,22.33
2023-01-10T05:06:49.904Z,27.40
2023-01-10T05:09:17.836Z,26.63
2023-01-10T05:11:45.565Z,25.48
2023-01-10T05:14:13.281Z,24.10
2023-01-10T05:16:41.273Z,20.10
2023-01-10T05:19:09.408Z,24.23
2023-01-10T05:21:37.062Z,27.65
2023-01-10T05:24:05.218Z,19.33
2023-01-10T05:26:33.015Z,24.25
2023-01-10T05:29:00.698Z,29.75
2023-01-10T05:31:28.515Z,25.30
2023-01-10T05:33:56.192Z,26.23
2023-01-10T05:36:24.301Z,22.42
2023-01-10T05:38:51.967Z,28.17
2023-01-10T05:41:19.714Z,17.90
2023-01-10T05:43:48.070Z,24.55
2023-01-10T05:46:15.871Z,30.75
2023-01-10T05:48:43.535Z,24.75
2023-01-10T05:51:11.188Z,16.83
2023-01-10T05:53:38.816Z,30.45
2023-01-10T05:56:07.849Z,22.70
2023-01-10T05:58:35.510Z,25.05
2023-01-10T06:01:03.341Z,26.85
2023-01-10T06:03:31.365Z,27.52
2023-01-10T06:05:58.998Z,23.40
2023-01-10T06:08:26.932Z,22.00
2023-01-10T06:10:54.719Z,16.27
2023-01-10T06:13:23.296Z,29.10
2023-01-10T06:15:51.903Z,21.30
2023-01-10T06:18:19.646Z,27.10
2023-01-10T06:20:47.506Z,26.85
2023-01-10T06:23:15.670Z,28.55
2023-01-10T06:25:43.639Z,30.15
2023-01-10T06:28:13.557Z,24.85
2023-01-10T06:30:43.493Z,27.67
2023-01-10T06:33:12.455Z,27.00
2023-01-10T06:35:40.633Z,20.63
2023-01-10T06:38:08.529Z,32.72
2023-01-10T06:40:36.209Z,34.67
2023-01-10T06:43:03.919Z,28.38
2023-01-10T06:45:31.787Z,22.60
2023-01-10T06:47:59.547Z,24.20
2023-01-10T06:50:27.395Z,26.35
2023-01-10T06:52:57.714Z,20.98
2023-01-10T06:55:26.537Z,17.00
2023-01-10T06:58:00.134Z,30.95
2023-01-10T07:00:30.223Z,34.78
2023-01-10T07:03:02.724Z,22.80
2023-01-10T07:05:30.897Z,23.20
2023-01-10T07:08:01.220Z,26.77
2023-01-10T07:10:29.113Z,31.58
2023-01-10T07:12:58.585Z,34.28
2023-01-10T07:15:27.464Z,28.92
2023-01-10T07:17:58.565Z,29.25
2023-01-10T07:20:27.267Z,31.40
2023-01-10T07:23:00.374Z,27.77
2023-01-10T07:25:30.674Z,25.70
2023-01-10T07:27:58.474Z,32.15
2023-01-10T07:30:26.519Z,25.20
2023-01-10T07:32:58.001Z,24.42
2023-01-10T07:35:26.192Z,23.15
2023-01-10T07:37:53.857Z,31.60
2023-01-10T07:40:21.501Z,24.10
2023-01-10T07:42:50.054Z,28.20
2023-01-10T07:45:17.870Z,29.80
2023-01-10T07:47:45.504Z,22.67
2023-01-10T07:50:13.153Z,25.15
2023-01-10T07:52:40.790Z,23.42
2023-01-10T07:55:09.470Z,36.60
2023-01-10T07:57:37.211Z,18.60
2023-01-10T08:00:05.326Z,21.45
2023-01-10T08:02:33.111Z,26.83
2023-01-10T08:05:00.899Z,36.70
2023-01-10T08:07:32.315Z,26.85
2023-01-10T08:09:59.973Z,24.17
2023-01-10T08:12:27.838Z,19.25
2023-01-10T08:14:55.526Z,19.90
2023-01-10T08:17:23.234Z,16.10
2023-01-10T08:19:50.968Z,35.05
2023-01-10T08:22:18.677Z,23.17
2023-01-10T08:24:46.386Z,30.45
2023-01-10T08:27:14.101Z,22.85
2023-01-10T08:29:42.234Z,20.35
2023-01-10T08:32:10.012Z,16.02
2023-01-10T08:34:37.742Z,17.73
2023-01-10T08:37:05.647Z,17.80
2023-01-10T08:39:35.137Z,19.27
2023-01-10T08:42:02.834Z,18.70
2023-01-10T08:44:30.543Z,18.83
2023-01-10T08:46:58.403Z,17.63
2023-01-10T08:49:26.302Z,22.85
2023-01-10T08:51:53.935Z,28.83
2023-01-10T08:54:21.730Z,27.77
2023-01-10T08:56:49.365Z,27.48
2023-01-10T08:59:17.327Z,23.33
2023-01-10T09:01:45.208Z,27.77
2023-01-10T09:04:12.889Z,15.80
2023-01-10T09:06:40.872Z,24.38
2023-01-10T09:09:09.663Z,29.98
2023-01-10T09:11:37.324Z,24.77
2023-01-10T09:14:07.382Z,15.52
2023-01-10T09:16:34.985Z,21.75
2023-01-10T09:19:04.323Z,31.10
2023-01-10T09:21:32.084Z,25.35
2023-01-10T09:23:59.746Z,23.77
2023-01-10T09:26:27.376Z,22.90
2023-01-10T09:28:55.093Z,24.42
2023-01-10T09:31:22.797Z,21.33
2023-01-10T09:33:50.459Z,19.50
2023-01-10T09:36:18.187Z,15.60
2023-01-10T09:38:45.911Z,16.73
2023-01-10T09:41:34.806Z,21.05
2023-01-10T09:44:30.102Z,35.55
2023-01-10T09:47:24.454Z,24.77
2023-01-10T09:50:17.384Z,21.38
2023-01-10T09:52:51.307Z,19.52
2023-01-10T09:55:25.497Z,27.98
2023-01-10T09:58:01.154Z,16.85
2023-01-10T10:03:53.604Z,24.47
2023-01-10T10:06:23.565Z,13.07
2023-01-10T10:08:52.375Z,12.63
2023-01-10T10:11:26.144Z,27.30
2023-01-10T10:14:23.206Z,17.85
2023-01-10T10:17:15.398Z,16.05
2023-01-10T10:20:16.670Z,17.20
2023-01-10T10:23:29.427Z,12.85
2023-01-10T10:26:22.888Z,22.83
2023-01-10T10:29:02.362Z,25.05
2023-01-10T10:32:01.179Z,28.00
2023-01-10T10:34:43.230Z,13.82
2023-01-10T10:37:24.079Z,19.42
2023-01-10T10:40:03.894Z,29.63
2023-01-10T10:42:39.953Z,20.58
2023-01-10T10:45:48.350Z,20.08
2023-01-10T10:48:50.502Z,25.50
2023-01-10T10:51:47.927Z,18.63
2023-01-10T10:54:16.583Z,19.48
2023-01-10T10:56:45.147Z,28.30
2023-01-10T10:59:19.102Z,22.77
2023-01-10T11:01:49.732Z,20.65
2023-01-10T11:04:21.943Z,15.25
2023-01-10T11:06:50.589Z,23.08
2023-01-10T11:09:41.338Z,20.77
2023-01-10T11:12:18.862Z,25.08
2023-01-10T11:14:51.343Z,20.67
2023-01-10T11:17:31.865Z,19.48
2023-01-10T11:20:06.631Z,16.85
2023-01-10T11:22:44.877Z,19.20
2023-01-10T11:25:19.671Z,16.13
2023-01-10T11:28:02.638Z,14.03
2023-01-10T11:30:36.772Z,23.33
2023-01-10T11:33:22.502Z,25.27
2023-01-10T11:36:00.869Z,18.73
2023-01-10T11:38:30.255Z,26.42
2023-01-10T11:41:23.337Z,20.65
2023-01-10T11:43:51.070Z,16.27
2023-01-10T11:46:21.302Z,25.90
2023-01-10T11:49:07.130Z,23.17
2023-01-10T11:51:44.691Z,17.15
2023-01-10T11:54:28.063Z,22.30
2023-01-10T11:57:08.234Z,20.70
2023-01-10T11:59:38.445Z,15.57
2023-01-10T12:02:23.451Z,18.23
2023-01-10T12:04:53.341Z,14.75
2023-01-10T12:07:21.445Z,17.30
2023-01-10T12:09:59.829Z,27.85
2023-01-10T12:12:34.482Z,23.52
2023-01-10T12:15:35.744Z,19.38
2023-01-10T12:18:06.146Z,19.95
2023-01-10T12:20:45.255Z,23.63
2023-01-10T12:23:20.489Z,13.13
2023-01-10T12:25:50.054Z,29.27
2023-01-10T12:28:30.160Z,13.45
2023-01-10T12:31:00.288Z,29.00
2023-01-10T12:33:46.790Z,17.52
2023-01-10T12:36:38.023Z,21.52
2023-01-10T12:39:30.610Z,20.42
2023-01-10T12:42:16.666Z,19.08
2023-01-10T12:47:54.923Z,19.10
2023-01-10T12:50:48.637Z,17.67
2023-01-10T12:53:36.675Z,23.15
2023-01-10T12:56:09.818Z,17.80
2023-01-10T12:58:48.363Z,14.73
2023-01-10T13:01:21.871Z,21.20
2023-01-10T13:04:00.134Z,22.60
2023-01-10T13:06:34.446Z,21.80
2023-01-10T13:09:13.619Z,11.52
2023-01-10T13:12:17.452Z,15.70
2023-01-10T13:15:21.412Z,9.77
2023-01-10T13:17:56.621Z,18.42
2023-01-10T13:20:24.669Z,19.23
2023-01-10T13:22:58.309Z,19.35
2023-01-10T13:25:31.628Z,19.52
2023-01-10T13:28:10.241Z,15.35
2023-01-10T13:30:42.634Z,14.40
2023-01-10T13:33:40.403Z,11.60
2023-01-10T13:36:21.895Z,17.42
2023-01-10T13:39:02.939Z,16.13
2023-01-10T13:42:17.562Z,12.65
2023-01-10T13:45:17.205Z,12.07
2023-01-10T13:47:48.302Z,14.95
2023-01-10T13:50:36.092Z,15.10
2023-01-10T13:53:12.779Z,6.80
2023-01-10T13:55:42.615Z,10.60
2023-01-10T13:58:16.208Z,12.30
2023-01-10T14:01:09.041Z,13.40
2023-01-10T14:03:49.557Z,9.90
2023-01-10T14:06:30.389Z,8.48
2023-01-10T14:09:13.335Z,7.60
2023-01-10T14:11:44.009Z,8.38
2023-01-10T14:14:22.327Z,12.52
2023-01-10T14:17:13.932Z,7.97
2023-01-10T14:19:45.698Z,6.13
2023-01-10T14:22:33.354Z,9.02
2023-01-10T14:25:07.492Z,8.20
2023-01-10T14:27:50.747Z,8.90
2023-01-10T14:30:26.741Z,7.97
2023-01-10T14:32:58.109Z,6.57
2023-01-10T14:35:36.292Z,4.00
2023-01-10T14:38:07.272Z,5.60
2023-01-10T14:40:48.442Z,5.55
2023-01-10T14:43:24.775Z,10.73
2023-01-10T14:45:58.720Z,8.93
2023-01-10T14:48:32.324Z,8.35
2023-01-10T14:51:29.672Z,6.22
2023-01-10T14:54:01.235Z,27.83
2023-01-10T14:56:48.247Z,13.93
2023-01-10T14:59:24.432Z,13.27
2023-01-10T15:02:15.302Z,5.60
2023-01-10T15:04:56.615Z,6.85
2023-01-10T15:07:26.177Z,9.77
2023-01-10T15:09:57.447Z,6.05
2023-01-10T15:12:30.869Z,6.75
2023-01-10T15:15:17.098Z,5.13
2023-01-10T15:17:46.526Z,6.30
2023-01-10T15:20:19.259Z,5.47
2023-01-10T15:22:55.170Z,8.18
2023-01-10T15:25:28.262Z,12.80
2023-01-10T15:27:57.686Z,8.98
2023-01-10T15:30:30.489Z,7.90
2023-01-10T15:33:05.546Z,8.15
2023-01-10T15:35:37.429Z,9.32
2023-01-10T15:38:15.133Z,10.27
2023-01-10T15:40:43.947Z,6.72
2023-01-10T15:43:17.767Z,10.38
2023-01-10T15:45:47.170Z,14.18
2023-01-10T15:48:33.735Z,11.30
2023-01-10T15:51:25.734Z,11.18
2023-01-10T15:54:13.172Z,10.27
2023-01-10T15:56:48.522Z,9.73
2023-01-10T15:59:41.311Z,10.43
2023-01-10T16:02:12.563Z,15.18
2023-01-10T16:04:41.651Z,14.60
2023-01-10T16:07:22.960Z,13.02
2023-01-10T16:10:14.829Z,14.27
2023-01-10T16:13:01.986Z,16.17
2023-01-10T16:15:36.493Z,13.50
2023-01-10T16:18:04.897Z,13.32
2023-01-10T16:20:46.161Z,13.80
2023-01-10T16:23:26.941Z,15.40
2023-01-10T16:25:58.982Z,14.30
2023-01-10T16:28:29.065Z,12.25
2023-01-10T16:30:56.905Z,13.20
2023-01-10T16:33:27.836Z,14.90
2023-01-10T16:35:58.888Z,14.45
2023-01-10T16:38:28.665Z,21.63
2023-01-10T16:41:22.848Z,17.08
2023-01-10T16:43:51.801Z,21.15
2023-01-10T16:46:19.668Z,16.50
2023-01-10T16:48:49.910Z,19.80
2023-01-10T16:51:28.796Z,15.65
2023-01-10T16:53:56.941Z,16.38
2023-01-10T16:56:28.768Z,14.85
2023-01-10T16:58:57.431Z,18.65
2023-01-10T17:01:35.477Z,16.95
2023-01-10T17:04:06.840Z,20.02
2023-01-10T17:06:35.653Z,22.73
2023-01-10T17:09:03.691Z,13.20
2023-01-10T17:11:38.794Z,14.30
2023-01-10T17:14:06.814Z,16.15
2023-01-10T17:16:35.144Z,18.35
2023-01-10T17:19:02.863Z,18.98
2023-01-10T17:21:31.468Z,21.20
2023-01-10T17:23:59.196Z,18.35
2023-01-10T17:26:27.005Z,16.52
2023-01-10T17:28:55.613Z,20.55
2023-01-10T17:31:23.410Z,18.08
2023-01-10T17:33:51.269Z,18.35
2023-01-10T17:36:19.582Z,22.27
2023-01-10T17:38:47.607Z,16.85
2023-01-10T17:41:15.330Z,23.65
2023-01-10T17:43:43.069Z,22.85
2023-01-10T17:46:11.045Z,22.60
2023-01-10T17:48:38.869Z,15.38
2023-01-10T17:51:07.618Z,20.05
2023-01-10T17:53:35.505Z,16.98
2023-01-10T17:56:06.795Z,16.30
2023-01-10T17:58:35.146Z,19.75
2023-01-10T18:01:03.047Z,18.65
2023-01-10T18:03:31.644Z,16.83
2023-01-10T18:05:59.756Z,17.38
2023-01-10T18:08:27.655Z,22.20
2023-01-10T18:11:02.016Z,23.08
2023-01-10T18:13:33.481Z,17.92
2023-01-10T18:16:02.111Z,17.33
2023-01-10T18:18:30.572Z,16.48
2023-01-10T18:21:02.146Z,20.33
2023-01-10T18:23:31.815Z,20.73
2023-01-10T18:26:06.027Z,18.17
2023-01-10T18:28:42.552Z,22.88
2023-01-10T18:31:17.472Z,18.35
2023-01-10T18:33:47.714Z,24.13
2023-01-10T18:36:19.393Z,16.52
2023-01-10T18:38:48.072Z,17.60
2023-01-10T18:41:17.223Z,18.20
2023-01-10T18:43:46.012Z,19.20
2023-01-10T18:46:20.415Z,15.13
2023-01-10T18:48:50.190Z,15.63
2023-01-10T18:51:19.225Z,15.88
2023-01-10T18:53:48.924Z,21.50
2023-01-10T18:56:17.250Z,19.27
2023-01-10T18:58:45.627Z,16.13
2023-01-10T19:01:18.033Z,19.70
2023-01-10T19:03:46.301Z,16.15
2023-01-10T19:06:18.166Z,19.10
2023-01-10T19:08:47.008Z,15.98
2023-01-10T19:11:17.940Z,15.40
2023-01-10T19:13:49.712Z,14.98
2023-01-10T19:16:29.316Z,16.92
2023-01-10T19:19:00.789Z,15.15
2023-01-10T19:21:31.052Z,14.15
2023-01-10T19:24:06.086Z,13.95
2023-01-10T19:26:34.617Z,16.23
2023-01-10T19:29:06.154Z,15.88
2023-01-10T19:31:33.993Z,15.80
2023-01-10T19:34:01.956Z,17.40
2023-01-10T19:36:34.673Z,14.20
2023-01-10T19:39:05.275Z,11.77
2023-01-10T19:41:34.943Z,16.48
2023-01-10T19:44:07.609Z,14.27
2023-01-10T19:46:38.337Z,15.95
2023-01-10T19:49:08.157Z,15.35
2023-01-10T19:51:38.091Z,18.25
2023-01-10T19:54:08.009Z,15.93
2023-01-10T19:56:36.430Z,17.80
2023-01-10T19:59:05.128Z,16.17
2023-01-10T20:01:33.716Z,19.77
2023-01-10T20:04:04.287Z,18.55
2023-01-10T20:06:36.408Z,16.33
2023-01-10T20:09:05.209Z,22.05
2023-01-10T20:11:40.242Z,16.27
2023-01-10T20:14:21.626Z,17.95
2023-01-10T20:16:49.444Z,16.13
2023-01-10T20:19:17.439Z,17.05
2023-01-10T20:21:45.998Z,16.40
2023-01-10T20:24:17.657Z,16.23
2023-01-10T20:26:47.266Z,18.50
2023-01-10T20:29:15.742Z,14.45
2023-01-10T20:31:46.549Z,17.17
2023-01-10T20:34:14.427Z,15.18
2023-01-10T20:36:42.211Z,19.00
2023-01-10T20:39:10.206Z,13.63
2023-01-10T20:41:37.945Z,11.15
2023-01-10T20:44:06.262Z,15.63
2023-01-10T20:46:34.307Z,15.30
2023-01-10T20:49:02.985Z,16.70
2023-01-10T20:51:43.209Z,12.15
2023-01-10T20:54:15.103Z,11.55
2023-01-10T20:56:43.334Z,18.00
2023-01-10T20:59:10.968Z,14.57
2023-01-10T21:01:38.638Z,16.58
2023-01-10T21:04:07.786Z,11.65
2023-01-10T21:06:36.195Z,11.43
2023-01-10T21:09:05.614Z,8.30
2023-01-10T21:11:44.377Z,12.02
2023-01-10T21:14:20.577Z,17.77
2023-01-10T21:16:49.427Z,10.82
2023-01-10T21:19:17.288Z,10.00
2023-01-10T21:21:45.375Z,13.93
2023-01-10T21:24:13.048Z,17.00
2023-01-10T21:26:40.903Z,12.35
2023-01-10T21:29:08.638Z,12.85
2023-01-10T21:31:36.324Z,11.00
2023-01-10T21:34:04.084Z,13.57
2023-01-10T21:36:32.179Z,6.55
2023-01-10T21:38:59.819Z,9.02
2023-01-10T21:41:45.907Z,12.80
2023-01-10T21:44:13.520Z,8.52
2023-01-10T21:46:44.609Z,8.43
2023-01-10T21:49:12.313Z,8.65
2023-01-10T21:51:40.028Z,9.35
2023-01-10T21:54:08.003Z,9.43
2023-01-10T21:56:35.746Z,11.13
2023-01-10T21:59:03.716Z,9.00
2023-01-10T22:01:31.491Z,8.98
2023-01-10T22:03:59.162Z,5.32
2023-01-10T22:06:27.060Z,12.38
2023-01-10T22:08:55.380Z,12.70
2023-01-10T22:11:23.170Z,7.78
2023-01-10T22:13:52.742Z,7.45
2023-01-10T22:16:20.500Z,13.43
2023-01-10T22:18:49.090Z,9.13
2023-01-10T22:21:18.840Z,9.02
2023-01-10T22:23:46.553Z,14.52
2023-01-10T22:26:16.316Z,13.98
2023-01-10T22:28:44.080Z,14.13
2023-01-10T22:31:11.944Z,15.05
2023-01-10T22:33:39.725Z,9.80
2023-01-10T22:36:18.175Z,13.30
2023-01-10T22:38:49.217Z,10.18
2023-01-10T22:41:21.593Z,11.38
2023-01-10T22:43:49.411Z,12.27
2023-01-10T22:46:17.152Z,14.70
2023-01-10T22:48:45.350Z,9.55
2023-01-10T22:51:19.054Z,10.32
2023-01-10T22:53:56.737Z,16.02
2023-01-10T22:56:25.390Z,12.43
2023-01-10T22:58:53.384Z,14.07
2023-01-10T23:01:23.455Z,9.50
2023-01-10T23:03:51.600Z,9.25
2023-01-10T23:06:19.717Z,10.90
2023-01-10T23:08:47.690Z,13.82
2023-01-10T23:11:18.431Z,12.27
2023-01-10T23:13:47.319Z,12.57
2023-01-10T23:16:28.767Z,9.95
2023-01-10T23:18:58.304Z,7.32
2023-01-10T23:21:28.737Z,7.25
2023-01-10T23:23:57.060Z,13.93
2023-01-10T23:26:24.708Z,13.52
2023-01-10T23:28:52.857Z,9.55
2023-01-10T23:31:23.928Z,11.50
2023-01-10T23:33:51.921Z,8.13
2023-01-10T23:36:19.904Z,7.85
2023-01-10T23:38:47.820Z,7.10
2023-01-10T23:41:15.719Z,8.45
2023-01-10T23:43:43.485Z,7.57
2023-01-10T23:46:11.249Z,7.65
2023-01-10T23:48:39.140Z,10.13
2023-01-10T23:51:07.881Z,12.40
2023-01-10T23:53:35.609Z,4.18
2023-01-10T23:56:12.880Z,5.43
2023-01-10T23:58:41.386Z,6.40
